Contact Us:
Email: info@sawbill.com
Phone: (218)663-7150
Fax: (218)663-7980
Mail: 4620 Sawbill Trail
Box 2129
Tofte, MN 55615


Powered by
Movable Type 3.15
 
Sawbill Weather History Archives: July 2008
Current Sawbill Weather History | « June 2008 | August 2008 »


Date

High
Temperature

Low
Temperature

Barometric
Pressure

Relative
Humidity 7AM

9 AM
Temperature

Moisture

Snow

7/31/08 71 55 30.00 98% 58 Trace
7/30/08 72 57 29.97 91% 58 Trace
7/29/08 75 59 29.88 91% 61 .14"
7/28/08 75 56 29.94 98% 59 .13"
7/27/08 75 52 30.06 93% 58 0
7/26/08 75 58 29.97 89% 60 .08"
7/25/08 75 60 30.00 78% 62 .05"
7/24/08 70 58 30.03 98% 66 Trace
7/23/08 73 54 30.15 83% 58 0
7/22/08 71 49 30.36 97% 56 0
7/21/08 66 56 30.29 98% 56 .22"
7/20/08 71 54 30.15 97% 57 .05"
7/19/08 68 53 30.06 92% 55 Trace
7/18/08 73 53 30.09 88% 54 0
7/17/08 73 53 30.03 98% 61 .12"
7/16/08 72 54 29.98 89% 54 .21"
7/15/08 74 54 30.15 93% 55 .45"
7/14/08 71 51 29.94 98% 51 .48"
7/13/08 59 50 29.94 96% 51 .15"
7/12/08 70 53 29.56 98% 53 .17"
7/11/08 69 52 29.74 90% 55 .49"
7/10/08 64 42 29.93 84% 44 0
7/09/08 69 53 29.79 74% 55 0
7/08/08 68 53 29.71 75% 54 0
7/07/08 69 55 29.77 94% 60 0
7/06/08 81 54 30.00 69% 63 0
7/05/08 79 53 29.80 94% 66 .32"
7/04/08 71 52 29.96 74% 66 0
7/03/08 68 51 30.15 89% 53 0
7/02/08 64 48 30.91 92% 52 0
7/01/08 82 60 29.74 95% 60 .3"
 


Home I Trip Planning I Rentals and Outfitting I Reservations I Campgrounds I Sawbill Store I Sawbill News I Contact

© 1997 - 2014, Sawbill Canoe Outfitters, Inc. I Privacy Policy